sensor_id;sensor_type;location;lat;lon;timestamp;temperature;humidity
5930;DHT22;2990;48.746;9.236;2023-04-01T00:00:46;7.30;1.00
5930;DHT22;2990;48.746;9.236;2023-04-01T00:03:12;7.30;1.00
5930;DHT22;2990;48.746;9.236;2023-04-01T00:05:37;7.30;1.00
5930;DHT22;2990;48.746;9.236;2023-04-01T00:08:03;7.40;1.00
5930;DHT22;2990;48.746;9.236;2023-04-01T00:10:29;7.30;1.00
5930;DHT22;2990;48.746;9.236;2023-04-01T00:12:54;7.40;1.00
5930;DHT22;2990;48.746;9.236;2023-04-01T00:15:20;7.40;1.00
5930;DHT22;2990;48.746;9.236;2023-04-01T00:17:46;7.60;1.00
5930;DHT22;2990;48.746;9.236;2023-04-01T00:20:12;7.40;1.00
5930;DHT22;2990;48.746;9.236;2023-04-01T00:22:40;7.30;1.00
5930;DHT22;2990;48.746;9.236;2023-04-01T00:25:06;7.30;1.00
5930;DHT22;2990;48.746;9.236;2023-04-01T00:27:32;7.30;1.00
5930;DHT22;2990;48.746;9.236;2023-04-01T00:29:57;7.30;1.00
5930;DHT22;2990;48.746;9.236;2023-04-01T00:32:23;7.40;1.00
5930;DHT22;2990;48.746;9.236;2023-04-01T00:34:52;7.30;1.00
5930;DHT22;2990;48.746;9.236;2023-04-01T00:37:19;7.30;1.00
5930;DHT22;2990;48.746;9.236;2023-04-01T00:39:44;7.30;1.00
5930;DHT22;2990;48.746;9.236;2023-04-01T00:42:11;7.30;1.00
5930;DHT22;2990;48.746;9.236;2023-04-01T00:44:38;7.30;1.00
5930;DHT22;2990;48.746;9.236;2023-04-01T00:47:04;7.30;1.00
5930;DHT22;2990;48.746;9.236;2023-04-01T00:49:39;7.40;1.00
5930;DHT22;2990;48.746;9.236;2023-04-01T00:52:08;7.40;1.00
5930;DHT22;2990;48.746;9.236;2023-04-01T00:54:36;7.40;1.00
5930;DHT22;2990;48.746;9.236;2023-04-01T00:57:15;7.40;1.00
5930;DHT22;2990;48.746;9.236;2023-04-01T00:59:46;7.40;1.00
5930;DHT22;2990;48.746;9.236;2023-04-01T01:02:13;7.40;1.00
5930;DHT22;2990;48.746;9.236;2023-04-01T01:04:40;7.40;1.00
5930;DHT22;2990;48.746;9.236;2023-04-01T01:07:37;7.40;1.00
5930;DHT22;2990;48.746;9.236;2023-04-01T01:10:18;7.40;1.00
5930;DHT22;2990;48.746;9.236;2023-04-01T01:21:53;7.30;42.00
5930;DHT22;2990;48.746;9.236;2023-04-01T01:27:09;7.30;52.20
5930;DHT22;2990;48.746;9.236;2023-04-01T01:32:59;7.30;29.00
5930;DHT22;2990;48.746;9.236;2023-04-01T01:35:29;7.30;8.20
5930;DHT22;2990;48.746;9.236;2023-04-01T01:38:00;7.30;9.50
5930;DHT22;2990;48.746;9.236;2023-04-01T01:40:28;7.30;21.40
5930;DHT22;2990;48.746;9.236;2023-04-01T01:42:57;7.30;16.80
5930;DHT22;2990;48.746;9.236;2023-04-01T01:45:26;7.40;21.40
5930;DHT22;2990;48.746;9.236;2023-04-01T01:47:54;7.30;25.90
5930;DHT22;2990;48.746;9.236;2023-04-01T01:50:21;7.20;33.30
5930;DHT22;2990;48.746;9.236;2023-04-01T01:52:47;7.30;45.70
5930;DHT22;2990;48.746;9.236;2023-04-01T01:55:29;7.20;63.30
5930;DHT22;2990;48.746;9.236;2023-04-01T01:57:58;7.20;83.90
5930;DHT22;2990;48.746;9.236;2023-04-01T02:00:24;7.10;94.20
5930;DHT22;2990;48.746;9.236;2023-04-01T02:02:50;7.10;99.90
5930;DHT22;2990;48.746;9.236;2023-04-01T02:05:23;7.10;99.90
5930;DHT22;2990;48.746;9.236;2023-04-01T02:10:27;7.10;99.90
5930;DHT22;2990;48.746;9.236;2023-04-01T02:12:57;7.10;99.90
5930;DHT22;2990;48.746;9.236;2023-04-01T02:15:26;7.10;99.90
5930;DHT22;2990;48.746;9.236;2023-04-01T02:17:55;7.10;96.20
5930;DHT22;2990;48.746;9.236;2023-04-01T02:20:23;7.10;89.80
5930;DHT22;2990;48.746;9.236;2023-04-01T02:22:55;7.10;90.60
5930;DHT22;2990;48.746;9.236;2023-04-01T02:25:25;7.00;81.80
5930;DHT22;2990;48.746;9.236;2023-04-01T02:27:53;7.00;85.50
5930;DHT22;2990;48.746;9.236;2023-04-01T02:30:20;6.90;84.00
5930;DHT22;2990;48.746;9.236;2023-04-01T02:32:46;6.90;90.20
5930;DHT22;2990;48.746;9.236;2023-04-01T02:35:15;6.90;91.30
5930;DHT22;2990;48.746;9.236;2023-04-01T02:37:42;7.20;73.80
5930;DHT22;2990;48.746;9.236;2023-04-01T02:40:11;6.90;65.10
5930;DHT22;2990;48.746;9.236;2023-04-01T02:42:37;6.90;51.00
5930;DHT22;2990;48.746;9.236;2023-04-01T02:45:04;6.90;37.50
5930;DHT22;2990;48.746;9.236;2023-04-01T02:47:30;6.90;33.70
5930;DHT22;2990;48.746;9.236;2023-04-01T02:49:56;6.80;33.90
5930;DHT22;2990;48.746;9.236;2023-04-01T02:52:24;6.80;27.00
5930;DHT22;2990;48.746;9.236;2023-04-01T02:54:50;6.80;31.10
5930;DHT22;2990;48.746;9.236;2023-04-01T02:57:16;6.80;36.60
5930;DHT22;2990;48.746;9.236;2023-04-01T02:59:41;6.80;32.50
5930;DHT22;2990;48.746;9.236;2023-04-01T03:02:07;6.70;16.40
5930;DHT22;2990;48.746;9.236;2023-04-01T03:04:33;6.80;1.00
5930;DHT22;2990;48.746;9.236;2023-04-01T03:06:58;6.70;1.00
5930;DHT22;2990;48.746;9.236;2023-04-01T03:09:24;6.80;1.00
5930;DHT22;2990;48.746;9.236;2023-04-01T03:11:50;6.80;1.00
5930;DHT22;2990;48.746;9.236;2023-04-01T03:14:15;6.80;1.00
5930;DHT22;2990;48.746;9.236;2023-04-01T03:16:41;6.70;1.00
5930;DHT22;2990;48.746;9.236;2023-04-01T03:19:07;6.90;1.00
5930;DHT22;2990;48.746;9.236;2023-04-01T03:21:33;6.90;1.00
5930;DHT22;2990;48.746;9.236;2023-04-01T03:23:58;6.80;1.00
5930;DHT22;2990;48.746;9.236;2023-04-01T03:26:24;6.70;1.00
5930;DHT22;2990;48.746;9.236;2023-04-01T03:28:52;6.60;1.00
5930;DHT22;2990;48.746;9.236;2023-04-01T03:31:17;6.70;1.00
5930;DHT22;2990;48.746;9.236;2023-04-01T03:33:43;6.70;1.00
5930;DHT22;2990;48.746;9.236;2023-04-01T03:36:08;6.70;1.00
5930;DHT22;2990;48.746;9.236;2023-04-01T03:38:35;6.70;1.00
5930;DHT22;2990;48.746;9.236;2023-04-01T03:41:01;6.70;1.00
5930;DHT22;2990;48.746;9.236;2023-04-01T03:43:27;6.70;1.00
5930;DHT22;2990;48.746;9.236;2023-04-01T03:45:53;6.80;1.00
5930;DHT22;2990;48.746;9.236;2023-04-01T03:48:20;6.80;1.00
5930;DHT22;2990;48.746;9.236;2023-04-01T03:50:46;6.80;1.00
5930;DHT22;2990;48.746;9.236;2023-04-01T03:53:11;6.70;1.00
5930;DHT22;2990;48.746;9.236;2023-04-01T03:55:37;6.80;1.00
5930;DHT22;2990;48.746;9.236;2023-04-01T03:58:06;6.70;1.00
5930;DHT22;2990;48.746;9.236;2023-04-01T04:00:32;6.70;1.00
5930;DHT22;2990;48.746;9.236;2023-04-01T04:02:58;6.70;1.00
5930;DHT22;2990;48.746;9.236;2023-04-01T04:05:25;6.60;1.00
5930;DHT22;2990;48.746;9.236;2023-04-01T04:07:51;6.60;1.00
5930;DHT22;2990;48.746;9.236;2023-04-01T04:10:17;6.50;1.00
5930;DHT22;2990;48.746;9.236;2023-04-01T04:12:43;6.70;1.00
5930;DHT22;2990;48.746;9.236;2023-04-01T04:15:09;6.50;1.00
5930;DHT22;2990;48.746;9.236;2023-04-01T04:17:34;6.40;1.00
5930;DHT22;2990;48.746;9.236;2023-04-01T04:20:00;6.40;1.00
5930;DHT22;2990;48.746;9.236;2023-04-01T04:22:26;6.30;1.00
5930;DHT22;2990;48.746;9.236;2023-04-01T04:24:52;6.30;1.00
5930;DHT22;2990;48.746;9.236;2023-04-01T04:27:18;6.40;1.00
5930;DHT22;2990;48.746;9.236;2023-04-01T04:29:43;6.30;1.00
5930;DHT22;2990;48.746;9.236;2023-04-01T04:32:09;6.40;1.00
5930;DHT22;2990;48.746;9.236;2023-04-01T04:34:35;6.30;1.00
5930;DHT22;2990;48.746;9.236;2023-04-01T04:37:00;6.30;1.00
5930;DHT22;2990;48.746;9.236;2023-04-01T04:39:26;6.30;1.00
5930;DHT22;2990;48.746;9.236;2023-04-01T04:41:51;6.30;1.00
5930;DHT22;2990;48.746;9.236;2023-04-01T04:44:17;6.20;1.00
5930;DHT22;2990;48.746;9.236;2023-04-01T04:46:43;6.20;1.00
5930;DHT22;2990;48.746;9.236;2023-04-01T04:49:08;6.20;1.00
5930;DHT22;2990;48.746;9.236;2023-04-01T04:51:34;6.20;1.00
5930;DHT22;2990;48.746;9.236;2023-04-01T04:54:02;6.20;1.00
5930;DHT22;2990;48.746;9.236;2023-04-01T04:56:27;6.30;1.00
5930;DHT22;2990;48.746;9.236;2023-04-01T04:58:53;6.50;1.00
5930;DHT22;2990;48.746;9.236;2023-04-01T05:01:20;6.30;1.00
5930;DHT22;2990;48.746;9.236;2023-04-01T05:03:45;6.30;1.00
5930;DHT22;2990;48.746;9.236;2023-04-01T05:06:13;6.50;1.00
5930;DHT22;2990;48.746;9.236;2023-04-01T05:08:39;6.20;1.00
5930;DHT22;2990;48.746;9.236;2023-04-01T05:11:07;6.30;1.00
5930;DHT22;2990;48.746;9.236;2023-04-01T05:13:35;6.30;1.00
5930;DHT22;2990;48.746;9.236;2023-04-01T05:16:01;6.30;1.00
5930;DHT22;2990;48.746;9.236;2023-04-01T05:18:27;6.40;1.00
5930;DHT22;2990;48.746;9.236;2023-04-01T05:20:54;6.40;1.00
5930;DHT22;2990;48.746;9.236;2023-04-01T05:23:21;6.50;1.00
5930;DHT22;2990;48.746;9.236;2023-04-01T05:25:50;6.40;1.00
5930;DHT22;2990;48.746;9.236;2023-04-01T05:28:18;6.40;1.00
5930;DHT22;2990;48.746;9.236;2023-04-01T05:30:44;6.50;1.00
5930;DHT22;2990;48.746;9.236;2023-04-01T05:33:12;6.50;1.00
5930;DHT22;2990;48.746;9.236;2023-04-01T05:35:38;6.70;1.00
5930;DHT22;2990;48.746;9.236;2023-04-01T05:38:04;6.50;1.00
5930;DHT22;2990;48.746;9.236;2023-04-01T05:40:30;6.60;1.00
5930;DHT22;2990;48.746;9.236;2023-04-01T05:42:56;6.60;1.00
5930;DHT22;2990;48.746;9.236;2023-04-01T05:45:22;6.70;1.00
5930;DHT22;2990;48.746;9.236;2023-04-01T05:47:47;6.70;1.00
5930;DHT22;2990;48.746;9.236;2023-04-01T05:50:13;6.80;1.00
5930;DHT22;2990;48.746;9.236;2023-04-01T05:52:39;6.90;1.00
5930;DHT22;2990;48.746;9.236;2023-04-01T05:55:05;6.90;1.00
5930;DHT22;2990;48.746;9.236;2023-04-01T05:57:31;6.90;1.00
5930;DHT22;2990;48.746;9.236;2023-04-01T05:59:56;7.00;1.00
5930;DHT22;2990;48.746;9.236;2023-04-01T06:02:22;7.00;1.00
5930;DHT22;2990;48.746;9.236;2023-04-01T06:04:48;7.00;1.00
5930;DHT22;2990;48.746;9.236;2023-04-01T06:07:16;7.10;1.00
5930;DHT22;2990;48.746;9.236;2023-04-01T06:09:43;7.10;1.00
5930;DHT22;2990;48.746;9.236;2023-04-01T06:15:13;7.20;99.90
5930;DHT22;2990;48.746;9.236;2023-04-01T06:18:08;7.30;99.90
5930;DHT22;2990;48.746;9.236;2023-04-01T06:21:06;7.40;99.90
5930;DHT22;2990;48.746;9.236;2023-04-01T06:31:38;7.70;99.90
5930;DHT22;2990;48.746;9.236;2023-04-01T06:34:23;7.80;99.90
5930;DHT22;2990;48.746;9.236;2023-04-01T06:45:15;7.90;99.90
5930;DHT22;2990;48.746;9.236;2023-04-01T06:50:44;8.00;99.90
5930;DHT22;2990;48.746;9.236;2023-04-01T06:53:42;7.90;99.90
5930;DHT22;2990;48.746;9.236;2023-04-01T06:56:15;7.90;99.90
5930;DHT22;2990;48.746;9.236;2023-04-01T06:58:52;8.00;1.00
5930;DHT22;2990;48.746;9.236;2023-04-01T07:01:41;8.00;82.00
5930;DHT22;2990;48.746;9.236;2023-04-01T07:04:15;8.00;1.00
5930;DHT22;2990;48.746;9.236;2023-04-01T07:06:48;8.20;99.90
5930;DHT22;2990;48.746;9.236;2023-04-01T07:09:22;8.10;1.00
5930;DHT22;2990;48.746;9.236;2023-04-01T07:11:50;8.20;1.00
5930;DHT22;2990;48.746;9.236;2023-04-01T07:14:30;8.20;1.00
5930;DHT22;2990;48.746;9.236;2023-04-01T07:17:12;8.20;1.00
5930;DHT22;2990;48.746;9.236;2023-04-01T07:19:58;8.30;99.90
5930;DHT22;2990;48.746;9.236;2023-04-01T07:22:38;8.30;99.90
5930;DHT22;2990;48.746;9.236;2023-04-01T07:25:22;8.40;1.00
5930;DHT22;2990;48.746;9.236;2023-04-01T07:27:53;8.40;1.00
5930;DHT22;2990;48.746;9.236;2023-04-01T07:30:22;8.40;1.00
5930;DHT22;2990;48.746;9.236;2023-04-01T07:32:57;8.40;99.90
5930;DHT22;2990;48.746;9.236;2023-04-01T07:35:46;8.40;1.00
5930;DHT22;2990;48.746;9.236;2023-04-01T07:46:30;8.30;1.00
5930;DHT22;2990;48.746;9.236;2023-04-01T07:54:26;8.30;1.00
5930;DHT22;2990;48.746;9.236;2023-04-01T07:57:08;8.40;99.90
5930;DHT22;2990;48.746;9.236;2023-04-01T08:05:28;8.50;1.00
5930;DHT22;2990;48.746;9.236;2023-04-01T08:10:54;8.60;1.00
5930;DHT22;2990;48.746;9.236;2023-04-01T08:13:44;8.70;1.00
5930;DHT22;2990;48.746;9.236;2023-04-01T08:16:18;8.70;99.90
5930;DHT22;2990;48.746;9.236;2023-04-01T08:24:17;8.70;1.00
5930;DHT22;2990;48.746;9.236;2023-04-01T08:26:49;8.70;99.90
5930;DHT22;2990;48.746;9.236;2023-04-01T08:29:22;8.70;1.00
5930;DHT22;2990;48.746;9.236;2023-04-01T08:32:12;8.80;1.00
5930;DHT22;2990;48.746;9.236;2023-04-01T08:34:42;8.80;5.10
5930;DHT22;2990;48.746;9.236;2023-04-01T08:37:20;8.80;1.00
5930;DHT22;2990;48.746;9.236;2023-04-01T08:39:55;8.80;1.00
5930;DHT22;2990;48.746;9.236;2023-04-01T08:42:29;8.90;1.00
5930;DHT22;2990;48.746;9.236;2023-04-01T08:45:24;8.90;99.90
5930;DHT22;2990;48.746;9.236;2023-04-01T08:47:55;8.80;32.90
5930;DHT22;2990;48.746;9.236;2023-04-01T08:58:46;8.40;99.90
5930;DHT22;2990;48.746;9.236;2023-04-01T09:26:08;8.40;1.00
5930;DHT22;2990;48.746;9.236;2023-04-01T09:34:57;8.80;99.90
5930;DHT22;2990;48.746;9.236;2023-04-01T09:37:46;9.00;1.00
5930;DHT22;2990;48.746;9.236;2023-04-01T09:40:17;9.20;1.00
5930;DHT22;2990;48.746;9.236;2023-04-01T09:49:23;9.20;1.00
5930;DHT22;2990;48.746;9.236;2023-04-01T10:16:42;8.80;99.90
5930;DHT22;2990;48.746;9.236;2023-04-01T10:19:49;8.80;1.00
5930;DHT22;2990;48.746;9.236;2023-04-01T10:36:57;9.20;1.00
5930;DHT22;2990;48.746;9.236;2023-04-01T10:39:38;9.40;99.90
5930;DHT22;2990;48.746;9.236;2023-04-01T11:02:08;9.90;99.90
5930;DHT22;2990;48.746;9.236;2023-04-01T11:10:29;10.00;99.90
5930;DHT22;2990;48.746;9.236;2023-04-01T11:19:14;10.00;1.00
5930;DHT22;2990;48.746;9.236;2023-04-01T11:44:26;10.50;1.00
5930;DHT22;2990;48.746;9.236;2023-04-01T12:08:36;10.40;99.90
5930;DHT22;2990;48.746;9.236;2023-04-01T12:11:21;10.20;99.90
5930;DHT22;2990;48.746;9.236;2023-04-01T12:17:15;10.10;1.00
5930;DHT22;2990;48.746;9.236;2023-04-01T12:20:00;10.40;1.00
5930;DHT22;2990;48.746;9.236;2023-04-01T12:25:52;10.40;9.60
5930;DHT22;2990;48.746;9.236;2023-04-01T12:28:39;10.40;1.00
5930;DHT22;2990;48.746;9.236;2023-04-01T12:34:31;10.00;99.90
5930;DHT22;2990;48.746;9.236;2023-04-01T12:37:13;10.10;99.90
5930;DHT22;2990;48.746;9.236;2023-04-01T12:39:48;10.20;13.00
5930;DHT22;2990;48.746;9.236;2023-04-01T12:42:37;10.30;1.00
5930;DHT22;2990;48.746;9.236;2023-04-01T12:51:26;10.70;99.90
5930;DHT22;2990;48.746;9.236;2023-04-01T12:59:48;10.80;1.00
5930;DHT22;2990;48.746;9.236;2023-04-01T13:11:09;11.30;1.00
5930;DHT22;2990;48.746;9.236;2023-04-01T13:14:15;11.20;1.00
5930;DHT22;2990;48.746;9.236;2023-04-01T13:17:20;11.00;1.00
5930;DHT22;2990;48.746;9.236;2023-04-01T13:22:58;10.80;1.00
5930;DHT22;2990;48.746;9.236;2023-04-01T13:25:47;10.70;1.00
5930;DHT22;2990;48.746;9.236;2023-04-01T13:28:22;10.70;1.00
5930;DHT22;2990;48.746;9.236;2023-04-01T13:33:45;10.70;1.00
5930;DHT22;2990;48.746;9.236;2023-04-01T13:36:37;10.60;1.00
5930;DHT22;2990;48.746;9.236;2023-04-01T13:56:17;10.70;1.00
5930;DHT22;2990;48.746;9.236;2023-04-01T14:21:37;10.80;1.00
5930;DHT22;2990;48.746;9.236;2023-04-01T14:50:53;10.30;99.90
5930;DHT22;2990;48.746;9.236;2023-04-01T14:55:59;10.30;99.90
5930;DHT22;2990;48.746;9.236;2023-04-01T14:58:57;10.30;99.90
5930;DHT22;2990;48.746;9.236;2023-04-01T15:09:54;10.10;51.20
5930;DHT22;2990;48.746;9.236;2023-04-01T15:12:33;10.10;91.40
5930;DHT22;2990;48.746;9.236;2023-04-01T15:15:33;10.10;95.30
5930;DHT22;2990;48.746;9.236;2023-04-01T15:24:16;9.90;99.90
5930;DHT22;2990;48.746;9.236;2023-04-01T15:37:59;9.90;99.90
5930;DHT22;2990;48.746;9.236;2023-04-01T15:40:49;9.90;99.90
5930;DHT22;2990;48.746;9.236;2023-04-01T15:49:15;9.90;99.90
5930;DHT22;2990;48.746;9.236;2023-04-01T15:51:47;9.90;1.00
5930;DHT22;2990;48.746;9.236;2023-04-01T16:00:25;9.60;1.00
5930;DHT22;2990;48.746;9.236;2023-04-01T16:08:43;9.80;98.10
5930;DHT22;2990;48.746;9.236;2023-04-01T16:11:43;9.90;13.00
5930;DHT22;2990;48.746;9.236;2023-04-01T16:14:16;9.70;1.00
5930;DHT22;2990;48.746;9.236;2023-04-01T16:22:32;9.70;60.40
5930;DHT22;2990;48.746;9.236;2023-04-01T16:25:20;9.60;99.90
5930;DHT22;2990;48.746;9.236;2023-04-01T16:31:05;9.60;1.00
5930;DHT22;2990;48.746;9.236;2023-04-01T16:33:49;9.50;1.00
5930;DHT22;2990;48.746;9.236;2023-04-01T16:36:54;9.50;1.00
5930;DHT22;2990;48.746;9.236;2023-04-01T16:39:29;9.60;1.00
5930;DHT22;2990;48.746;9.236;2023-04-01T16:42:25;9.40;24.30
5930;DHT22;2990;48.746;9.236;2023-04-01T16:45:32;9.60;99.90
5930;DHT22;2990;48.746;9.236;2023-04-01T16:48:13;9.30;99.90
5930;DHT22;2990;48.746;9.236;2023-04-01T16:50:58;9.30;1.00
5930;DHT22;2990;48.746;9.236;2023-04-01T16:53:45;9.30;1.00
5930;DHT22;2990;48.746;9.236;2023-04-01T16:56:24;9.30;99.90
5930;DHT22;2990;48.746;9.236;2023-04-01T17:02:02;9.30;99.90
5930;DHT22;2990;48.746;9.236;2023-04-01T17:04:44;9.50;99.90
5930;DHT22;2990;48.746;9.236;2023-04-01T17:10:15;9.50;99.90
5930;DHT22;2990;48.746;9.236;2023-04-01T17:16:14;9.40;1.00
5930;DHT22;2990;48.746;9.236;2023-04-01T17:21:18;9.40;1.00
5930;DHT22;2990;48.746;9.236;2023-04-01T17:23:52;9.50;1.00
5930;DHT22;2990;48.746;9.236;2023-04-01T17:29:42;9.40;1.00
5930;DHT22;2990;48.746;9.236;2023-04-01T17:32:38;9.30;1.00
5930;DHT22;2990;48.746;9.236;2023-04-01T17:35:13;9.40;1.00
5930;DHT22;2990;48.746;9.236;2023-04-01T17:46:01;9.20;71.50
5930;DHT22;2990;48.746;9.236;2023-04-01T17:48:45;9.30;99.90
5930;DHT22;2990;48.746;9.236;2023-04-01T18:00:19;9.10;1.00
5930;DHT22;2990;48.746;9.236;2023-04-01T18:08:13;9.10;1.00
5930;DHT22;2990;48.746;9.236;2023-04-01T18:13:33;9.00;96.10
5930;DHT22;2990;48.746;9.236;2023-04-01T18:16:18;9.00;99.90
5930;DHT22;2990;48.746;9.236;2023-04-01T18:22:07;9.00;1.00
5930;DHT22;2990;48.746;9.236;2023-04-01T18:27:24;8.90;1.00
5930;DHT22;2990;48.746;9.236;2023-04-01T18:30:07;8.80;99.90
5930;DHT22;2990;48.746;9.236;2023-04-01T18:32:55;8.70;99.90
5930;DHT22;2990;48.746;9.236;2023-04-01T18:38:34;8.50;1.00
5930;DHT22;2990;48.746;9.236;2023-04-01T18:41:20;8.50;1.00
5930;DHT22;2990;48.746;9.236;2023-04-01T18:46:51;8.50;1.00
5930;DHT22;2990;48.746;9.236;2023-04-01T18:52:15;8.30;99.90
5930;DHT22;2990;48.746;9.236;2023-04-01T18:54:47;8.30;99.90
5930;DHT22;2990;48.746;9.236;2023-04-01T18:57:17;8.20;99.90
5930;DHT22;2990;48.746;9.236;2023-04-01T18:59:50;8.10;99.90
5930;DHT22;2990;48.746;9.236;2023-04-01T19:05:16;8.00;75.80
5930;DHT22;2990;48.746;9.236;2023-04-01T19:07:50;7.90;1.00
5930;DHT22;2990;48.746;9.236;2023-04-01T19:13:22;7.90;1.00
5930;DHT22;2990;48.746;9.236;2023-04-01T19:21:39;7.70;99.90
5930;DHT22;2990;48.746;9.236;2023-04-01T19:27:29;7.60;1.00
5930;DHT22;2990;48.746;9.236;2023-04-01T19:38:26;7.60;99.90
5930;DHT22;2990;48.746;9.236;2023-04-01T19:41:16;7.50;1.00
5930;DHT22;2990;48.746;9.236;2023-04-01T19:44:09;7.50;1.00
5930;DHT22;2990;48.746;9.236;2023-04-01T19:52:42;7.40;37.20
5930;DHT22;2990;48.746;9.236;2023-04-01T19:55:22;7.40;32.70
5930;DHT22;2990;48.746;9.236;2023-04-01T20:00:48;7.50;1.00
5930;DHT22;2990;48.746;9.236;2023-04-01T20:03:21;7.60;1.00
5930;DHT22;2990;48.746;9.236;2023-04-01T20:11:54;7.50;99.60
5930;DHT22;2990;48.746;9.236;2023-04-01T20:15:03;7.50;47.80
5930;DHT22;2990;48.746;9.236;2023-04-01T20:17:41;7.50;31.90
5930;DHT22;2990;48.746;9.236;2023-04-01T20:25:23;7.40;68.70
5930;DHT22;2990;48.746;9.236;2023-04-01T20:28:00;7.40;99.90
5930;DHT22;2990;48.746;9.236;2023-04-01T20:35:57;7.40;99.90
5930;DHT22;2990;48.746;9.236;2023-04-01T20:38:55;7.60;99.90
5930;DHT22;2990;48.746;9.236;2023-04-01T20:41:28;7.40;99.90
5930;DHT22;2990;48.746;9.236;2023-04-01T20:44:12;7.40;99.90
5930;DHT22;2990;48.746;9.236;2023-04-01T20:52:29;7.40;1.00
5930;DHT22;2990;48.746;9.236;2023-04-01T21:04:10;7.30;1.00
5930;DHT22;2990;48.746;9.236;2023-04-01T21:15:49;7.30;1.00
5930;DHT22;2990;48.746;9.236;2023-04-01T21:18:36;7.30;1.00
5930;DHT22;2990;48.746;9.236;2023-04-01T21:24:08;7.40;1.00
5930;DHT22;2990;48.746;9.236;2023-04-01T21:35:30;7.30;1.00
5930;DHT22;2990;48.746;9.236;2023-04-01T21:41:09;7.30;1.00
5930;DHT22;2990;48.746;9.236;2023-04-01T21:43:43;7.40;1.00
5930;DHT22;2990;48.746;9.236;2023-04-01T21:46:44;7.40;1.00
5930;DHT22;2990;48.746;9.236;2023-04-01T21:55:13;7.40;1.00
5930;DHT22;2990;48.746;9.236;2023-04-01T22:06:14;7.40;1.00
5930;DHT22;2990;48.746;9.236;2023-04-01T22:09:31;7.60;1.00
5930;DHT22;2990;48.746;9.236;2023-04-01T22:12:36;7.30;1.00
5930;DHT22;2990;48.746;9.236;2023-04-01T22:20:41;7.30;99.90
5930;DHT22;2990;48.746;9.236;2023-04-01T22:23:31;7.20;99.90
5930;DHT22;2990;48.746;9.236;2023-04-01T22:29:09;7.30;1.00
5930;DHT22;2990;48.746;9.236;2023-04-01T22:37:29;7.20;39.30
5930;DHT22;2990;48.746;9.236;2023-04-01T22:45:53;7.30;99.90
5930;DHT22;2990;48.746;9.236;2023-04-01T22:48:47;7.30;99.90
5930;DHT22;2990;48.746;9.236;2023-04-01T22:59:35;7.30;40.80
5930;DHT22;2990;48.746;9.236;2023-04-01T23:02:14;7.40;1.00
5930;DHT22;2990;48.746;9.236;2023-04-01T23:04:47;7.30;78.40
5930;DHT22;2990;48.746;9.236;2023-04-01T23:10:26;7.40;99.90
5930;DHT22;2990;48.746;9.236;2023-04-01T23:13:01;7.50;99.90
5930;DHT22;2990;48.746;9.236;2023-04-01T23:15:28;7.30;99.90
5930;DHT22;2990;48.746;9.236;2023-04-01T23:18:20;7.40;99.90
5930;DHT22;2990;48.746;9.236;2023-04-01T23:21:13;7.20;99.90
5930;DHT22;2990;48.746;9.236;2023-04-01T23:24:21;7.20;99.90
5930;DHT22;2990;48.746;9.236;2023-04-01T23:27:04;7.20;99.90
5930;DHT22;2990;48.746;9.236;2023-04-01T23:29:37;7.30;99.90
5930;DHT22;2990;48.746;9.236;2023-04-01T23:32:18;7.20;99.90
5930;DHT22;2990;48.746;9.236;2023-04-01T23:35:11;7.20;99.90
5930;DHT22;2990;48.746;9.236;2023-04-01T23:37:41;7.20;99.90
5930;DHT22;2990;48.746;9.236;2023-04-01T23:40:12;7.10;99.90
5930;DHT22;2990;48.746;9.236;2023-04-01T23:42:40;7.10;99.90
5930;DHT22;2990;48.746;9.236;2023-04-01T23:45:18;7.10;99.90
5930;DHT22;2990;48.746;9.236;2023-04-01T23:47:48;7.10;99.90
5930;DHT22;2990;48.746;9.236;2023-04-01T23:50:22;7.10;99.90
5930;DHT22;2990;48.746;9.236;2023-04-01T23:53:03;7.10;99.90
5930;DHT22;2990;48.746;9.236;2023-04-01T23:55:37;7.00;99.90
